createdAt,value
2022-12-19T00:00:12.238Z,1015.25
2022-12-19T00:02:14.121Z,1015.34
2022-12-19T00:03:14.059Z,1015.32
2022-12-19T00:05:17.955Z,1015.28
2022-12-19T00:06:18.018Z,1015.28
2022-12-19T00:08:21.858Z,1015.27
2022-12-19T00:09:21.839Z,1015.27
2022-12-19T00:11:25.775Z,1015.37
2022-12-19T00:12:25.747Z,1015.33
2022-12-19T00:14:29.687Z,1015.31
2022-12-19T00:15:29.655Z,1015.37
2022-12-19T00:17:33.591Z,1015.31
2022-12-19T00:18:33.562Z,1015.27
2022-12-19T00:20:37.496Z,1015.20
2022-12-19T00:21:37.548Z,1015.23
2022-12-19T00:23:30.329Z,1015.24
2022-12-19T00:24:30.308Z,1015.15
2022-12-19T00:26:34.251Z,1015.17
2022-12-19T00:27:34.218Z,1015.12
2022-12-19T00:29:38.151Z,1015.18
2022-12-19T00:30:38.126Z,1015.18
2022-12-19T00:32:42.075Z,1015.14
2022-12-19T00:33:43.356Z,1015.09
2022-12-19T00:35:45.985Z,1015.04
2022-12-19T00:36:46.040Z,1015.02
2022-12-19T00:38:49.890Z,1015.01
2022-12-19T00:39:49.865Z,1015.02
2022-12-19T00:41:53.806Z,1014.97
2022-12-19T00:42:53.903Z,1014.97
2022-12-19T00:44:57.712Z,1014.89
2022-12-19T00:45:57.919Z,1014.90
2022-12-19T00:48:01.625Z,1014.85
2022-12-19T00:49:01.601Z,1014.90
2022-12-19T00:51:05.541Z,1014.89
2022-12-19T00:52:05.586Z,1014.90
2022-12-19T00:53:58.372Z,1014.91
2022-12-19T00:54:58.415Z,1014.94
2022-12-19T00:57:02.287Z,1014.94
2022-12-19T00:58:02.261Z,1014.96
2022-12-19T01:00:06.195Z,1014.99
2022-12-19T01:01:06.260Z,1014.95
2022-12-19T01:03:10.182Z,1014.91
2022-12-19T01:06:14.027Z,1014.92
2022-12-19T01:07:14.077Z,1014.95
2022-12-19T01:09:17.927Z,1015.07
2022-12-19T01:10:17.905Z,1015.06
2022-12-19T01:12:24.349Z,1015.00
2022-12-19T01:13:21.817Z,1014.99
2022-12-19T01:15:25.744Z,1014.96
2022-12-19T01:16:25.746Z,1014.97
2022-12-19T01:18:29.666Z,1014.93
2022-12-19T01:19:29.633Z,1014.91
2022-12-19T01:21:33.564Z,1014.92
2022-12-19T01:22:33.618Z,1014.90
2022-12-19T01:24:37.486Z,1014.91
2022-12-19T01:25:37.454Z,1014.90
2022-12-19T01:27:41.402Z,1014.94
2022-12-19T01:28:41.373Z,1014.95
2022-12-19T01:30:45.297Z,1014.85
2022-12-19T01:31:45.318Z,1014.85
2022-12-19T01:33:38.147Z,1014.84
2022-12-19T01:34:38.112Z,1014.88
2022-12-19T01:36:42.039Z,1014.80
2022-12-19T01:37:42.105Z,1014.78
2022-12-19T01:39:46.134Z,1014.76
2022-12-19T01:40:45.934Z,1014.75
2022-12-19T01:42:49.880Z,1014.63
2022-12-19T01:43:49.851Z,1014.64
2022-12-19T01:45:53.836Z,1014.64
2022-12-19T01:46:53.761Z,1014.66
2022-12-19T01:48:57.699Z,1014.63
2022-12-19T01:49:57.671Z,1014.57
2022-12-19T01:52:01.598Z,1014.49
2022-12-19T01:53:01.673Z,1014.44
2022-12-19T01:55:05.517Z,1014.33
2022-12-19T01:56:08.000Z,1014.33
2022-12-19T01:58:09.401Z,1014.26
2022-12-19T01:59:09.377Z,1014.24
2022-12-19T02:01:13.355Z,1014.26
2022-12-19T02:02:13.388Z,1014.31
2022-12-19T02:04:06.151Z,1014.40
2022-12-19T02:05:06.124Z,1014.40
2022-12-19T02:07:16.046Z,1014.39
2022-12-19T02:08:10.119Z,1014.42
2022-12-19T02:10:13.968Z,1014.44
2022-12-19T02:11:13.966Z,1014.48
2022-12-19T02:13:06.803Z,1014.44
2022-12-19T02:14:06.785Z,1014.43
2022-12-19T02:16:10.765Z,1014.39
2022-12-19T02:17:10.686Z,1014.41
2022-12-19T02:19:14.627Z,1014.39
2022-12-19T02:20:14.596Z,1014.38
2022-12-19T02:22:19.139Z,1014.32
2022-12-19T02:23:18.592Z,1014.25
2022-12-19T02:25:22.448Z,1014.19
2022-12-19T02:26:22.418Z,1014.24
2022-12-19T02:28:26.351Z,1014.28
2022-12-19T02:29:26.333Z,1014.33
2022-12-19T02:31:30.283Z,1014.28
2022-12-19T02:32:30.236Z,1014.33
2022-12-19T02:34:34.181Z,1014.27
2022-12-19T02:35:34.154Z,1014.29
2022-12-19T02:37:38.084Z,1014.21
2022-12-19T02:38:38.144Z,1014.19
2022-12-19T02:40:42.009Z,1014.22
2022-12-19T02:41:41.980Z,1014.25
2022-12-19T02:43:34.844Z,1014.20
2022-12-19T02:44:34.825Z,1014.15
2022-12-19T02:46:38.764Z,1014.12
2022-12-19T02:47:38.750Z,1014.08
2022-12-19T02:49:42.705Z,1014.01
2022-12-19T02:50:42.656Z,1013.91
2022-12-19T02:52:46.607Z,1013.91
2022-12-19T02:53:46.665Z,1013.99
2022-12-19T02:55:50.524Z,1013.99
2022-12-19T02:56:50.492Z,1013.95
2022-12-19T02:58:54.428Z,1013.91
2022-12-19T02:59:54.407Z,1013.94
2022-12-19T03:01:58.519Z,1013.91
2022-12-19T03:03:01.208Z,1013.93
2022-12-19T03:04:51.479Z,1014.02
2022-12-19T03:05:51.442Z,1013.99
2022-12-19T03:07:55.407Z,1013.97
2022-12-19T03:08:55.433Z,1013.90
2022-12-19T03:10:59.293Z,1013.83
2022-12-19T03:11:59.259Z,1013.82
2022-12-19T03:13:52.129Z,1013.86
2022-12-19T03:14:52.112Z,1013.85
2022-12-19T03:16:45.227Z,1013.80
2022-12-19T03:17:45.151Z,1013.79
2022-12-19T03:19:38.215Z,1013.77
2022-12-19T03:20:38.189Z,1013.73
2022-12-19T03:22:42.154Z,1013.74
2022-12-19T03:23:42.131Z,1013.77
2022-12-19T03:25:46.141Z,1013.78
2022-12-19T03:26:46.042Z,1013.78
2022-12-19T03:28:50.004Z,1013.74
2022-12-19T03:29:49.947Z,1013.74
2022-12-19T03:31:53.896Z,1013.81
2022-12-19T03:32:53.868Z,1013.81
2022-12-19T03:34:57.803Z,1013.77
2022-12-19T03:35:57.783Z,1013.75
2022-12-19T03:38:01.733Z,1013.81
2022-12-19T03:39:01.701Z,1013.87
2022-12-19T03:41:05.717Z,1013.88
2022-12-19T03:42:05.614Z,1013.90
2022-12-19T03:43:58.480Z,1013.82
2022-12-19T03:44:58.565Z,1013.81
2022-12-19T03:47:02.415Z,1013.76
2022-12-19T03:48:02.374Z,1013.76
2022-12-19T03:50:06.310Z,1013.77
2022-12-19T03:51:06.287Z,1013.78
2022-12-19T03:53:10.235Z,1013.76
2022-12-19T03:54:10.207Z,1013.75
2022-12-19T03:56:14.225Z,1013.74
2022-12-19T03:57:14.124Z,1013.71
2022-12-19T03:59:18.068Z,1013.74
2022-12-19T04:00:18.041Z,1013.69
2022-12-19T04:02:22.099Z,1013.72
2022-12-19T04:03:22.001Z,1013.70
2022-12-19T04:05:25.903Z,1013.69
2022-12-19T04:06:25.873Z,1013.70
2022-12-19T04:08:29.819Z,1013.68
2022-12-19T04:09:29.791Z,1013.70
2022-12-19T04:11:33.809Z,1013.72
2022-12-19T04:12:33.709Z,1013.76
2022-12-19T04:14:37.643Z,1013.74
2022-12-19T04:15:37.675Z,1013.74
2022-12-19T04:17:41.564Z,1013.76
2022-12-19T04:18:41.537Z,1013.80
2022-12-19T04:20:45.479Z,1013.80
2022-12-19T04:21:45.451Z,1013.76
2022-12-19T04:23:38.820Z,1013.80
2022-12-19T04:24:38.794Z,1013.67
2022-12-19T04:25:38.779Z,1013.71
2022-12-19T04:26:38.838Z,1013.68
2022-12-19T04:27:38.750Z,1013.64
2022-12-19T04:28:38.737Z,1013.65
2022-12-19T04:29:38.717Z,1013.60
2022-12-19T04:30:38.702Z,1013.54
2022-12-19T04:31:38.686Z,1013.52
2022-12-19T04:32:38.672Z,1013.52
2022-12-19T04:33:38.656Z,1013.48
2022-12-19T04:34:42.747Z,1013.49
2022-12-19T04:35:38.624Z,1013.49
2022-12-19T04:36:38.604Z,1013.41
2022-12-19T04:37:38.596Z,1013.38
2022-12-19T04:38:38.586Z,1013.35
2022-12-19T04:39:38.568Z,1013.37
2022-12-19T04:40:41.537Z,1013.32
2022-12-19T04:41:38.534Z,1013.31
2022-12-19T04:42:38.599Z,1013.22
2022-12-19T04:43:38.504Z,1013.21
2022-12-19T04:44:38.496Z,1013.21
2022-12-19T04:45:38.486Z,1013.22
2022-12-19T04:46:38.488Z,1013.26
2022-12-19T04:47:38.445Z,1013.21
2022-12-19T04:48:38.428Z,1013.26
2022-12-19T04:49:38.414Z,1013.28
2022-12-19T04:50:38.395Z,1013.25
2022-12-19T04:51:38.385Z,1013.29
2022-12-19T04:52:38.370Z,1013.27
2022-12-19T04:53:38.353Z,1013.29
2022-12-19T04:54:38.332Z,1013.27
2022-12-19T04:55:38.320Z,1013.31
2022-12-19T04:56:38.307Z,1013.24
2022-12-19T04:57:38.293Z,1013.23
2022-12-19T04:58:38.351Z,1013.18
2022-12-19T04:59:38.260Z,1013.27
2022-12-19T05:00:38.273Z,1013.20
2022-12-19T05:01:38.328Z,1013.19
2022-12-19T05:02:38.420Z,1013.22
2022-12-19T05:03:38.230Z,1013.24
2022-12-19T05:04:38.183Z,1013.20
2022-12-19T05:05:38.172Z,1013.22
2022-12-19T05:06:38.154Z,1013.27
2022-12-19T05:07:38.142Z,1013.30
2022-12-19T05:08:38.152Z,1013.37
2022-12-19T05:09:38.107Z,1013.32
2022-12-19T05:10:38.091Z,1013.36
2022-12-19T05:11:38.082Z,1013.35
2022-12-19T05:12:38.066Z,1013.38
2022-12-19T05:13:38.051Z,1013.38
2022-12-19T05:14:38.116Z,1013.37
2022-12-19T05:15:38.046Z,1013.38
2022-12-19T05:16:38.001Z,1013.38
2022-12-19T05:17:37.988Z,1013.38
2022-12-19T05:18:37.968Z,1013.36
2022-12-19T05:19:37.955Z,1013.37
2022-12-19T05:20:37.946Z,1013.39
2022-12-19T05:21:37.926Z,1013.34
2022-12-19T05:22:37.912Z,1013.34
2022-12-19T05:23:37.914Z,1013.28
2022-12-19T05:24:37.883Z,1013.28
2022-12-19T05:25:37.863Z,1013.22
2022-12-19T05:26:37.844Z,1013.23
2022-12-19T05:27:37.834Z,1013.21
2022-12-19T05:28:37.813Z,1013.17
2022-12-19T05:29:37.808Z,1013.12
2022-12-19T05:30:37.875Z,1013.13
2022-12-19T05:31:37.795Z,1013.14
2022-12-19T05:32:37.761Z,1013.20
2022-12-19T05:33:37.739Z,1013.20
2022-12-19T05:34:37.735Z,1013.23
2022-12-19T05:35:37.708Z,1013.21
2022-12-19T05:36:37.705Z,1013.24
2022-12-19T05:37:37.677Z,1013.23
2022-12-19T05:38:37.668Z,1013.17
2022-12-19T05:39:37.649Z,1013.18
2022-12-19T05:40:37.629Z,1013.11
2022-12-19T05:41:37.623Z,1013.10
2022-12-19T05:42:37.605Z,1013.15
2022-12-19T05:43:37.593Z,1013.10
2022-12-19T05:44:37.575Z,1013.19
2022-12-19T05:45:37.566Z,1013.18
2022-12-19T05:46:37.720Z,1013.20
2022-12-19T05:47:38.248Z,1013.19
2022-12-19T05:48:37.570Z,1013.21
2022-12-19T05:49:37.529Z,1013.17
2022-12-19T05:50:37.488Z,1013.17
2022-12-19T05:51:37.469Z,1013.14
2022-12-19T05:52:37.449Z,1013.16
2022-12-19T05:53:37.439Z,1013.20
2022-12-19T05:54:37.426Z,1013.21
2022-12-19T05:55:37.402Z,1013.25
2022-12-19T05:56:37.394Z,1013.27
2022-12-19T05:57:37.377Z,1013.26
2022-12-19T05:58:37.365Z,1013.23
2022-12-19T05:59:37.345Z,1013.19
2022-12-19T06:00:37.335Z,1013.15
2022-12-19T06:01:37.433Z,1013.17
2022-12-19T06:02:37.513Z,1013.11
2022-12-19T06:03:37.329Z,1013.12
2022-12-19T06:04:37.274Z,1013.13
2022-12-19T06:05:37.269Z,1013.12
2022-12-19T06:06:37.246Z,1013.16
2022-12-19T06:07:37.247Z,1013.19
2022-12-19T06:08:37.220Z,1013.21
2022-12-19T06:09:37.195Z,1013.19
2022-12-19T06:10:37.181Z,1013.16
2022-12-19T06:11:37.165Z,1013.21
2022-12-19T06:12:37.152Z,1013.23
2022-12-19T06:13:37.143Z,1013.22
2022-12-19T06:14:37.119Z,1013.21
2022-12-19T06:15:37.104Z,1013.25
2022-12-19T06:16:37.226Z,1013.23
2022-12-19T06:17:37.075Z,1013.23
2022-12-19T06:18:41.544Z,1013.19
2022-12-19T06:19:37.047Z,1013.22
2022-12-19T06:20:37.033Z,1013.25
2022-12-19T06:21:42.256Z,1013.29
2022-12-19T06:22:37.000Z,1013.31
2022-12-19T06:23:36.994Z,1013.34
2022-12-19T06:24:36.966Z,1013.29
2022-12-19T06:25:36.953Z,1013.26
2022-12-19T06:26:36.939Z,1013.21
2022-12-19T06:27:36.923Z,1013.17
2022-12-19T06:28:36.912Z,1013.14
2022-12-19T06:29:36.902Z,1013.11
2022-12-19T06:30:36.896Z,1013.14
2022-12-19T06:31:36.887Z,1013.12
2022-12-19T06:32:38.410Z,1013.07
2022-12-19T06:33:36.840Z,1013.06
2022-12-19T06:35:02.734Z,1013.12
2022-12-19T06:35:36.804Z,1013.13
2022-12-19T06:36:36.804Z,1013.19
2022-12-19T06:37:39.347Z,1013.22
2022-12-19T06:38:36.767Z,1013.26
2022-12-19T06:39:36.760Z,1013.34
2022-12-19T06:40:36.727Z,1013.31
2022-12-19T06:41:36.702Z,1013.32
2022-12-19T06:42:36.695Z,1013.35
2022-12-19T06:43:36.679Z,1013.37
2022-12-19T06:44:36.663Z,1013.37
2022-12-19T06:45:36.687Z,1013.33
2022-12-19T06:46:36.631Z,1013.34
2022-12-19T06:47:36.680Z,1013.26
2022-12-19T06:48:36.604Z,1013.24
2022-12-19T06:49:36.581Z,1013.27
2022-12-19T06:50:36.696Z,1013.27
2022-12-19T06:51:36.578Z,1013.27
2022-12-19T06:52:36.551Z,1013.21
2022-12-19T06:53:36.531Z,1013.21
2022-12-19T06:54:36.514Z,1013.07
2022-12-19T06:55:36.501Z,1013.05
2022-12-19T06:56:36.481Z,1013.05
2022-12-19T06:57:36.483Z,1013.08
2022-12-19T06:58:36.467Z,1013.04
2022-12-19T06:59:36.436Z,1013.18
2022-12-19T07:00:36.490Z,1013.15
2022-12-19T07:01:36.568Z,1013.06
2022-12-19T07:02:36.473Z,1013.04
2022-12-19T07:03:36.383Z,1013.08
2022-12-19T07:04:36.368Z,1013.18
2022-12-19T07:05:36.351Z,1013.14
2022-12-19T07:06:36.422Z,1013.18
2022-12-19T07:07:36.322Z,1013.10
2022-12-19T07:08:36.307Z,1013.06
2022-12-19T07:09:36.292Z,1012.98
2022-12-19T07:10:36.324Z,1012.96
2022-12-19T07:11:36.261Z,1012.96
2022-12-19T07:12:36.245Z,1012.98
2022-12-19T07:13:36.230Z,1012.91
2022-12-19T07:14:36.223Z,1012.83
2022-12-19T07:15:36.213Z,1012.81
2022-12-19T07:16:36.218Z,1012.79
2022-12-19T07:17:36.205Z,1012.84
2022-12-19T07:18:36.155Z,1012.82
2022-12-19T07:19:36.135Z,1012.86
2022-12-19T07:20:38.705Z,1012.90
2022-12-19T07:21:36.110Z,1012.94
2022-12-19T07:22:36.190Z,1012.93
2022-12-19T07:23:36.077Z,1012.91
2022-12-19T07:24:36.067Z,1012.94
2022-12-19T07:25:36.048Z,1012.99
2022-12-19T07:26:36.038Z,1012.98
2022-12-19T07:27:36.399Z,1013.02
2022-12-19T07:28:36.006Z,1013.06
2022-12-19T07:29:35.989Z,1013.04
2022-12-19T07:30:35.983Z,1013.04
2022-12-19T07:31:35.997Z,1013.08
2022-12-19T07:32:35.947Z,1013.06
2022-12-19T07:33:35.928Z,1013.05
2022-12-19T07:34:35.927Z,1013.05
2022-12-19T07:35:35.899Z,1012.97
2022-12-19T07:36:35.885Z,1012.95
2022-12-19T07:37:35.867Z,1012.98
2022-12-19T07:38:35.936Z,1013.01
2022-12-19T07:39:35.834Z,1013.04
2022-12-19T07:40:35.856Z,1012.99
2022-12-19T07:41:35.814Z,1013.04
2022-12-19T07:42:35.797Z,1013.00
2022-12-19T07:43:35.790Z,1013.12
2022-12-19T07:44:35.766Z,1013.19
2022-12-19T07:45:35.810Z,1013.26
2022-12-19T07:46:35.739Z,1013.32
2022-12-19T07:47:35.716Z,1013.31
2022-12-19T07:48:35.722Z,1013.29
2022-12-19T07:49:35.688Z,1013.19
2022-12-19T07:50:35.677Z,1013.21
2022-12-19T07:51:35.664Z,1013.19
2022-12-19T07:52:35.650Z,1013.16
2022-12-19T07:53:35.640Z,1013.17
2022-12-19T07:54:35.711Z,1013.17
2022-12-19T07:55:35.600Z,1013.21
2022-12-19T07:56:35.587Z,1013.26
2022-12-19T07:57:35.572Z,1013.27
2022-12-19T07:58:35.603Z,1013.24
2022-12-19T07:59:39.153Z,1013.19
2022-12-19T08:00:35.547Z,1013.21
2022-12-19T08:01:35.614Z,1013.20
2022-12-19T08:02:35.584Z,1013.20
2022-12-19T08:03:35.486Z,1013.17
2022-12-19T08:04:35.481Z,1013.20
2022-12-19T08:05:35.460Z,1013.23
2022-12-19T08:06:40.792Z,1013.14
2022-12-19T08:07:35.420Z,1013.15
2022-12-19T08:08:35.406Z,1013.11
2022-12-19T08:09:35.394Z,1013.16
2022-12-19T08:10:35.456Z,1013.18
2022-12-19T08:11:35.366Z,1013.17
2022-12-19T08:12:35.352Z,1013.09
2022-12-19T08:13:39.700Z,1012.99
2022-12-19T08:14:35.332Z,1012.99
2022-12-19T08:15:35.323Z,1013.06
2022-12-19T08:16:49.635Z,1013.09
2022-12-19T08:17:35.332Z,1013.10
2022-12-19T08:18:35.260Z,1013.10
2022-12-19T08:19:35.247Z,1013.08
2022-12-19T08:20:35.233Z,1013.07
2022-12-19T08:21:35.214Z,1013.09
2022-12-19T08:22:35.205Z,1013.08
2022-12-19T08:23:35.185Z,1013.08
2022-12-19T08:24:35.171Z,1013.08
2022-12-19T08:25:35.160Z,1013.04
2022-12-19T08:26:40.496Z,1013.05
2022-12-19T08:27:35.130Z,1012.99
2022-12-19T08:28:35.110Z,1013.02
2022-12-19T08:29:35.091Z,1012.98
2022-12-19T08:30:35.141Z,1012.98
2022-12-19T08:31:35.071Z,1012.95
2022-12-19T08:32:35.902Z,1012.96
2022-12-19T08:33:35.046Z,1012.99
2022-12-19T08:34:35.027Z,1013.00
2022-12-19T08:35:35.009Z,1013.08
2022-12-19T08:36:35.004Z,1013.06
2022-12-19T08:37:34.978Z,1013.08
2022-12-19T08:38:34.989Z,1013.08
2022-12-19T08:39:34.949Z,1013.09
2022-12-19T08:40:34.935Z,1013.05
2022-12-19T08:41:34.922Z,1013.07
2022-12-19T08:42:34.986Z,1013.04
2022-12-19T08:43:34.910Z,1013.06
2022-12-19T08:44:34.898Z,1013.04
2022-12-19T08:45:34.853Z,1013.06
2022-12-19T08:46:34.902Z,1013.03
2022-12-19T08:47:34.832Z,1013.09
2022-12-19T08:48:34.838Z,1013.04
2022-12-19T08:49:34.803Z,1012.99
2022-12-19T08:50:34.809Z,1013.05
2022-12-19T08:51:34.767Z,1013.04
2022-12-19T08:52:34.761Z,1013.07
2022-12-19T08:53:34.740Z,1013.06
2022-12-19T08:54:34.733Z,1013.09
2022-12-19T08:55:34.722Z,1013.01
2022-12-19T08:56:34.709Z,1012.96
2022-12-19T08:57:34.677Z,1013.02
2022-12-19T08:58:34.764Z,1013.14
2022-12-19T08:59:34.659Z,1013.16
2022-12-19T09:00:34.637Z,1013.18
2022-12-19T09:01:34.767Z,1013.20
2022-12-19T09:02:34.796Z,1013.17
2022-12-19T09:03:42.809Z,1013.13
2022-12-19T09:05:57.509Z,1013.05
2022-12-19T09:06:05.283Z,1013.08
2022-12-19T09:06:34.593Z,1013.10
2022-12-19T09:07:34.549Z,1013.09
2022-12-19T09:08:34.529Z,1013.14
2022-12-19T09:09:34.505Z,1013.12
2022-12-19T09:10:34.486Z,1013.07
2022-12-19T09:11:35.361Z,1013.02
2022-12-19T09:14:06.153Z,1013.04
2022-12-19T09:15:06.046Z,1013.06
2022-12-19T09:17:10.017Z,1013.07
2022-12-19T09:18:09.964Z,1013.06
2022-12-19T09:20:18.181Z,1013.02
2022-12-19T09:21:13.881Z,1012.98
2022-12-19T09:23:17.820Z,1012.96
2022-12-19T09:24:17.800Z,1012.95
2022-12-19T09:26:21.721Z,1012.94
2022-12-19T09:27:21.699Z,1012.96
2022-12-19T09:29:26.127Z,1013.07
2022-12-19T09:30:25.613Z,1013.05
2022-12-19T09:31:25.722Z,1013.01
2022-12-19T09:32:25.587Z,1013.08
2022-12-19T09:33:25.572Z,1013.03
2022-12-19T09:34:34.849Z,1013.05
2022-12-19T09:35:30.077Z,1013.11
2022-12-19T09:36:25.524Z,1013.17
2022-12-19T09:37:25.515Z,1013.19
2022-12-19T09:38:25.508Z,1013.18
2022-12-19T09:39:25.484Z,1013.20
2022-12-19T09:40:25.464Z,1013.18
2022-12-19T09:41:25.457Z,1013.18
2022-12-19T09:42:25.441Z,1013.16
2022-12-19T09:43:25.425Z,1013.08
2022-12-19T09:44:25.411Z,1013.14
2022-12-19T09:45:31.865Z,1013.10
2022-12-19T09:46:25.424Z,1013.12
2022-12-19T09:47:25.367Z,1013.12
2022-12-19T09:48:25.363Z,1013.14
2022-12-19T09:49:25.340Z,1013.20
2022-12-19T09:50:25.322Z,1013.16
2022-12-19T09:51:25.311Z,1013.09
2022-12-19T09:52:25.283Z,1013.10
2022-12-19T09:53:25.281Z,1013.12
2022-12-19T09:54:25.264Z,1013.04
2022-12-19T09:55:25.306Z,1013.03
2022-12-19T09:56:25.247Z,1013.00
2022-12-19T09:57:25.223Z,1012.99
2022-12-19T09:58:25.196Z,1013.03
2022-12-19T09:59:26.122Z,1012.95
2022-12-19T10:00:25.175Z,1012.95
2022-12-19T10:01:25.437Z,1012.94
2022-12-19T10:02:25.418Z,1012.87
2022-12-19T10:03:25.162Z,1012.77
2022-12-19T10:04:25.114Z,1012.76
2022-12-19T10:05:46.671Z,1012.80
2022-12-19T10:06:59.957Z,1012.77
2022-12-19T10:07:57.780Z,1012.84
2022-12-19T10:08:25.058Z,1012.81
2022-12-19T10:10:11.086Z,1012.81
2022-12-19T10:12:35.952Z,1012.79
2022-12-19T10:12:39.194Z,1012.66
2022-12-19T10:12:45.227Z,1012.75
2022-12-19T10:13:25.020Z,1012.63
2022-12-19T10:14:24.970Z,1012.63
2022-12-19T10:15:24.959Z,1012.58
2022-12-19T10:16:25.062Z,1012.60
2022-12-19T10:17:25.539Z,1012.62
2022-12-19T10:18:24.910Z,1012.66
2022-12-19T10:19:24.901Z,1012.66
2022-12-19T10:20:24.882Z,1012.70
2022-12-19T10:21:50.681Z,1012.77
2022-12-19T10:22:24.856Z,1012.80
2022-12-19T10:23:24.842Z,1012.74
2022-12-19T10:24:25.914Z,1012.74
2022-12-19T10:25:24.815Z,1012.80
2022-12-19T10:26:27.372Z,1012.72
2022-12-19T10:27:24.792Z,1012.67
2022-12-19T10:28:24.768Z,1012.67
2022-12-19T10:29:24.761Z,1012.62
2022-12-19T10:30:24.746Z,1012.59
2022-12-19T10:31:24.807Z,1012.61
2022-12-19T10:32:24.707Z,1012.62
2022-12-19T10:33:24.819Z,1012.60
2022-12-19T10:34:24.697Z,1012.62
2022-12-19T10:35:24.696Z,1012.65
2022-12-19T10:36:36.474Z,1012.67
2022-12-19T10:37:32.699Z,1012.72
2022-12-19T10:38:24.621Z,1012.74
2022-12-19T10:39:24.622Z,1012.80
2022-12-19T10:40:28.592Z,1012.79
2022-12-19T10:41:24.576Z,1012.76
2022-12-19T10:42:24.573Z,1012.71
2022-12-19T10:43:32.797Z,1012.65
2022-12-19T10:44:24.536Z,1012.63
2022-12-19T10:45:24.531Z,1012.66
2022-12-19T10:46:24.564Z,1012.63
2022-12-19T10:47:24.493Z,1012.62
2022-12-19T10:48:29.545Z,1012.69
2022-12-19T10:49:24.555Z,1012.64
2022-12-19T10:50:24.483Z,1012.64
2022-12-19T10:51:24.434Z,1012.62
2022-12-19T10:52:24.416Z,1012.52
2022-12-19T10:53:24.433Z,1012.46
2022-12-19T10:54:33.010Z,1012.34
2022-12-19T10:55:24.375Z,1012.27
2022-12-19T10:56:24.706Z,1012.27
2022-12-19T10:57:24.367Z,1012.29
2022-12-19T10:58:24.328Z,1012.35
2022-12-19T10:59:24.317Z,1012.36
2022-12-19T11:00:24.307Z,1012.39
2022-12-19T11:01:24.398Z,1012.44
2022-12-19T11:02:24.407Z,1012.43
2022-12-19T11:03:24.446Z,1012.41
2022-12-19T11:04:24.294Z,1012.36
2022-12-19T11:05:24.422Z,1012.37
2022-12-19T11:06:24.216Z,1012.31
2022-12-19T11:07:24.242Z,1012.25
2022-12-19T11:08:24.211Z,1012.28
2022-12-19T11:09:24.270Z,1012.25
2022-12-19T11:12:09.373Z,1012.23
2022-12-19T11:12:53.916Z,1012.26
2022-12-19T11:15:27.100Z,1012.25
2022-12-19T11:17:52.080Z,1012.27
2022-12-19T11:18:25.737Z,1012.29
2022-12-19T11:19:30.214Z,1012.24
2022-12-19T11:21:09.512Z,1012.24
2022-12-19T11:23:12.612Z,1012.24
2022-12-19T11:26:06.060Z,1012.23
2022-12-19T11:26:27.497Z,1012.26
2022-12-19T11:29:33.696Z,1012.23
2022-12-19T11:29:34.916Z,1012.27
2022-12-19T11:29:38.159Z,1012.24
2022-12-19T11:29:40.134Z,1012.19
2022-12-19T11:30:05.572Z,1012.30
2022-12-19T11:30:36.761Z,1012.26
2022-12-19T11:30:44.326Z,1012.22
2022-12-19T11:30:47.657Z,1012.26
2022-12-19T11:30:59.584Z,1012.23
2022-12-19T11:32:39.703Z,1012.15
2022-12-19T11:33:23.861Z,1012.15
2022-12-19T11:34:23.963Z,1012.05
2022-12-19T11:35:24.821Z,1012.02
2022-12-19T11:36:23.785Z,1012.04
2022-12-19T11:37:23.846Z,1012.03
2022-12-19T11:38:23.762Z,1012.00
2022-12-19T11:39:23.742Z,1011.98
2022-12-19T11:40:23.722Z,1011.95
2022-12-19T11:41:23.721Z,1012.00
2022-12-19T11:42:23.694Z,1011.97
2022-12-19T11:43:43.825Z,1011.97
2022-12-19T11:44:23.689Z,1012.02
2022-12-19T11:45:23.649Z,1012.07
2022-12-19T11:46:23.638Z,1012.07
2022-12-19T11:47:23.629Z,1012.02
2022-12-19T11:48:23.609Z,1012.09
2022-12-19T11:49:23.595Z,1012.08
2022-12-19T11:50:23.579Z,1012.09
2022-12-19T11:51:23.574Z,1012.07
2022-12-19T11:53:02.229Z,1011.97
2022-12-19T11:53:23.626Z,1012.03
2022-12-19T11:54:23.534Z,1012.03
2022-12-19T11:55:23.515Z,1011.93
2022-12-19T11:56:23.516Z,1011.92
2022-12-19T11:57:23.501Z,1011.91
2022-12-19T11:58:23.470Z,1011.89
2022-12-19T11:59:23.454Z,1011.92
2022-12-19T12:00:23.436Z,1011.83
2022-12-19T12:01:23.467Z,1011.87
2022-12-19T12:02:23.425Z,1011.89
2022-12-19T12:03:23.429Z,1011.95
2022-12-19T12:04:23.481Z,1011.92
2022-12-19T12:05:23.378Z,1011.92
2022-12-19T12:06:29.584Z,1011.90
2022-12-19T12:07:59.488Z,1011.86
2022-12-19T12:10:31.127Z,1011.84
2022-12-19T12:12:32.182Z,1011.79
2022-12-19T12:13:12.319Z,1011.71
2022-12-19T12:17:59.608Z,1011.69
2022-12-19T12:21:34.146Z,1011.68
2022-12-19T12:22:25.432Z,1011.73
2022-12-19T12:22:40.789Z,1011.72
2022-12-19T12:27:45.601Z,1011.68
2022-12-19T12:29:11.244Z,1011.68
2022-12-19T12:31:00.020Z,1011.59
2022-12-19T12:31:07.948Z,1011.65
2022-12-19T12:31:10.062Z,1011.59
2022-12-19T12:31:12.420Z,1011.60
2022-12-19T12:31:23.447Z,1011.68
2022-12-19T12:31:40.238Z,1011.65
2022-12-19T12:31:43.408Z,1011.38
2022-12-19T12:31:47.164Z,1011.38
2022-12-19T12:31:49.437Z,1011.58
2022-12-19T12:31:52.740Z,1011.46
2022-12-19T12:31:58.104Z,1011.36
2022-12-19T12:32:02.742Z,1011.45
2022-12-19T12:32:03.986Z,1011.67
2022-12-19T12:32:04.668Z,1011.65
2022-12-19T12:35:32.899Z,1011.41
2022-12-19T12:35:34.977Z,1011.45
2022-12-19T12:35:54.318Z,1011.38
2022-12-19T12:38:26.696Z,1011.41
2022-12-19T12:39:29.872Z,1011.40
2022-12-19T12:40:24.015Z,1011.41
2022-12-19T12:41:22.858Z,1011.44
2022-12-19T12:42:22.835Z,1011.41
2022-12-19T12:43:22.841Z,1011.43
2022-12-19T12:44:32.900Z,1011.40
2022-12-19T12:45:22.801Z,1011.43
2022-12-19T12:46:22.839Z,1011.43
2022-12-19T12:47:22.786Z,1011.46
2022-12-19T12:48:22.753Z,1011.44
2022-12-19T12:49:22.737Z,1011.45
2022-12-19T12:50:22.728Z,1011.46
2022-12-19T12:51:22.711Z,1011.54
2022-12-19T12:52:22.702Z,1011.50
2022-12-19T12:53:22.697Z,1011.55
2022-12-19T12:54:22.692Z,1011.51
2022-12-19T12:55:22.654Z,1011.53
2022-12-19T12:56:22.636Z,1011.54
2022-12-19T12:57:22.632Z,1011.51
2022-12-19T12:58:23.974Z,1011.47
2022-12-19T12:59:22.606Z,1011.40
2022-12-19T13:00:22.586Z,1011.45
2022-12-19T13:01:22.632Z,1011.47
2022-12-19T13:02:22.745Z,1011.37
2022-12-19T13:03:22.571Z,1011.39
2022-12-19T13:04:22.567Z,1011.37
2022-12-19T13:05:22.511Z,1011.36
2022-12-19T13:06:22.502Z,1011.36
2022-12-19T13:07:22.484Z,1011.42
2022-12-19T13:08:22.470Z,1011.40
2022-12-19T13:09:22.455Z,1011.45
2022-12-19T13:10:22.452Z,1011.41
2022-12-19T13:11:22.433Z,1011.48
2022-12-19T13:12:22.418Z,1011.44
2022-12-19T13:13:25.841Z,1011.46
2022-12-19T13:14:22.384Z,1011.41
2022-12-19T13:15:22.369Z,1011.43
2022-12-19T13:16:22.444Z,1011.41
2022-12-19T13:17:22.394Z,1011.41
2022-12-19T13:18:22.337Z,1011.43
2022-12-19T13:19:27.809Z,1011.39
2022-12-19T13:20:22.301Z,1011.34
2022-12-19T13:21:22.282Z,1011.34
2022-12-19T13:22:22.273Z,1011.34
2022-12-19T13:23:22.263Z,1011.31
2022-12-19T13:24:22.250Z,1011.31
2022-12-19T13:25:22.227Z,1011.35
2022-12-19T13:26:22.220Z,1011.37
2022-12-19T13:27:22.202Z,1011.37
2022-12-19T13:28:22.193Z,1011.36
2022-12-19T13:29:22.169Z,1011.35
2022-12-19T13:30:22.158Z,1011.31
2022-12-19T13:31:23.300Z,1011.30
2022-12-19T13:32:22.134Z,1011.33
2022-12-19T13:33:22.121Z,1011.37
2022-12-19T13:34:22.103Z,1011.38
2022-12-19T13:36:38.636Z,1011.41
2022-12-19T13:39:49.732Z,1011.36
2022-12-19T13:39:54.777Z,1011.36
2022-12-19T13:39:54.907Z,1011.34
2022-12-19T13:39:59.352Z,1011.34
2022-12-19T13:40:24.996Z,1011.34
2022-12-19T13:41:22.009Z,1011.33
2022-12-19T13:42:21.993Z,1011.33
2022-12-19T13:43:21.975Z,1011.23
2022-12-19T13:44:22.032Z,1011.21
2022-12-19T13:45:21.945Z,1011.14
2022-12-19T13:46:22.012Z,1011.10
2022-12-19T13:47:23.970Z,1011.11
2022-12-19T13:48:21.907Z,1011.11
2022-12-19T13:49:21.893Z,1011.16
2022-12-19T13:50:21.875Z,1011.18